AirNav   Phillips 66 Aviation Fuel
 
 839 users online  

4NC0 Boyd's Hawks Creek Airport
Mocksville, North Carolina, USA

GOING TO MOCKSVILLE?


FAA INFORMATION EFFECTIVE 01 FEBRUARY 2018

Location

FAA Identifier: 4NC0
Lat/Long: 35-53-56.5800N / 080-37-03.5600W
35-53.943000N / 080-37.059333W
35.8990500 / -80.6176556
(estimated)
Elevation: 815 ft. / 248 m (estimated)
Variation: 06W (1985)
From city: 3 miles W of MOCKSVILLE, NC
Time zone: UTC -5 (UTC -4 during Daylight Saving Time)
Zip code: 27028

Airport Operations

Airport use: Private use. Permission required prior to landing
Activation date: 03/1985
Control tower: no
ARTCC: ATLANTA CENTER
FSS: RALEIGH FLIGHT SERVICE STATION
Attendance: UNATNDD
Wind indicator: yes
Segmented circle: no

Airport Communications

WX AWOS-3 at RUQ (16 nm S): 118.175 (704-637-6197)
WX AWOS-3 at EXX (17 nm SE): 119.825 (336-956-2967)
WX AWOS-3 at SVH (18 nm SW): 119.225 (704-873-1978)

Nearby radio navigation aids

VOR radial/distance  VOR name  Freq  Var
BZMr093/30.3BARRETTS MOUNTAIN VOR/DME110.8006W
GSOr257/32.4GREENSBORO VORTAC116.2003W

 
NDB name  Hdg/Dist  Freq  Var  ID
ROVDY334/11.727506WRU .-. ..-
ZEPHYR176/25.232608WZEF --.. . ..-.
LINCOLNTON052/31.543206WIZN .. --.. -.

Airport Services

Runway Information

Runway 11/29

Dimensions: 2000 x 60 ft. / 610 x 18 m
Surface: turf
RUNWAY 11  RUNWAY 29
Traffic pattern: leftleft
Obstructions: 30 ft. trees, 100 ft. from runway20 ft. pline, 800 ft. from runway

Airport Ownership and Management from official FAA records

Ownership: Privately-owned
Owner: DON J. BOYD
196 MCALLISTER RD
MOCKSVILLE, NC 27028
Phone 336-492-2080
Manager: DON J. BOYD
196 MCALLISTER RD
MOCKSVILLE, NC 27028
Phone 336-408-0785

Airport Operational Statistics

Aircraft based on the field: 3
Single engine airplanes: 3
    

Instrument Procedures

There are no published instrument procedures at 4NC0.

Some nearby airports with instrument procedures:

8A7 - Twin Lakes Airport (8 nm E)
KRUQ - Mid-Carolina Regional Airport (16 nm S)
KEXX - Davidson County Airport (17 nm SE)
KSVH - Statesville Regional Airport (18 nm SW)
14A - Lake Norman Airpark (22 nm SW)
 
Loc | Ops | Rwys | IFR | FBO | Links
Com | Nav | Svcs | Stats | Notes

AirNav Hotels Sweepstakes
 
Area around 4NC0 (Boyd's Hawks Creek Airport)
 
Road maps at: MapQuest Bing Google
 
Aerial photo
WARNING: Photo may not be current or correct
Aerial photo of 4NC0 (Boyd's Hawks Creek Airport)
Do you have a better or more recent aerial photo of Boyd's Hawks Creek Airport that you would like to share? If so, please send us your photo.

 
Sectional chart

 
Airport distance calculator
Flying to Boyd's Hawks Creek Airport? Find the distance to fly.

From to 4NC0

Sunrise and sunset
Times for 25-Feb-2018
 Local
(UTC-5)
 Zulu
(UTC)
Morning civil twilight06:3311:33
Sunrise06:5911:59
Sunset18:1223:12
Evening civil twilight18:3823:38

Current date and time
Zulu (UTC)  25-Feb-2018 14:10:57
Local (UTC-5)  25-Feb-2018 09:10:57
 
METAR
KRUQ 
16nm S 
251355Z AUTO 24009KT 10SM 19/15 A3005 RMK AO2 T01860145
KEXX 
17nm SE 
251355Z AUTO 25006KT 10SM OVC100 19/16 A3006 RMK AO2 T01870156
KSVH 
18nm SW 
251355Z AUTO 26007KT 10SM RA OVC019 17/16 A3007 RMK AO2 T01740157
KINT 
24nm NE 
251354Z 27009G14KT 10SM OVC019 18/14 A3007 RMK AO2 SLP176 T01830144
KUKF 
30nm NW 
251350Z AUTO 19003KT 10SM OVC080 15/15 A3011 RMK AO2
KJQF 
31nm S 
251359Z 23010G16KT 10SM CLR 20/14 A3008
TAF
KINT 
24nm NE 
251120Z 2512/2612 20009G17KT P6SM BKN110 FM251400 23012G20KT P6SM VCSH BKN040 TEMPO 2517/2521 4SM -SHRA OVC025 FM252100 23008KT P6SM VCSH OVC070 FM261000 VRB03KT 4SM -SHRA OVC025
NOTAMs
Click for the latest NOTAMs
NOTAMs are issued by the DoD/FAA and will open in a separate window not controlled by AirNav.

 

 
 

Would you like to see your business listed on this page?

 If your business provides an interesting product or service to pilots, flight crews, aircraft, or users of the Boyd's Hawks Creek Airport, you should consider listing it here.  To start the listing process, click on the button below
 
Add a business
 

Other Pages about Boyd's Hawks Creek Airport

Update a link
 
Copyright © AirNav, LLC. All rights reserved. Privacy Policy  Contact